Dong Fang You 2 — BXEC — position and weather

sailwx.info

Track history (hours):
 
Tides and Currents Weather Stations Pressure Air Temp Water Temp Dewpoint Dewpoint Depression Visibility Wind Speed Wind Dir Waves Ship Positions

Dong Fang You 2

Last reported at 2014-Oct-23 19:07 UTC. Time now 2014-Oct-30 23:51 UTC.
Position N 20°14' E 110°33'.

Length 82 m; draft 4.5 m.

MMSI: 412464680.

Date/timePositionNaut miles runAvg speedWind from/ knotsBaromVisibWave heightAir tempDewpointWater temp
2014-Oct-23 19:07N 20°14' E 110°33'11 5.5
2014-Oct-23 17:09N 20°11' E 110°22'3 4.9
2014-Oct-23 16:33N 20°10' E 110°19'5 4.6
2014-Oct-23 15:33N 20°10' E 110°14'  
2014-Oct-18 09:33N 21°49' E 113°12'7 7.1
2014-Oct-18 08:33N 21°56' E 113°09'  
2014-Oct-15 09:19N 22°07' E 113°06'7 8.7
2014-Oct-15 08:33N 22°01' E 113°06'9 9.0
2014-Oct-15 07:33N 21°54' E 113°12'7 7.0
2014-Oct-15 06:33N 21°47' E 113°10'7 7.2
2014-Oct-15 05:33N 21°42' E 113°04'  
Track history (hours):
 
Tides and Currents Weather Stations Pressure Air Temp Water Temp Dewpoint Dewpoint Depression Visibility Wind Speed Wind Dir Waves Ship Positions

Dong Fang You 2

Last reported at 2014-Oct-23 19:07 UTC. Time now 2014-Oct-30 23:51 UTC.
Position N 20°14' E 110°33'.

Length 82 m; draft 4.5 m.

MMSI: 412464680.

Date/timePositionNaut miles runAvg speedWind from/ knotsBaromVisibWave heightAir tempDewpointWater temp
2014-Oct-23 19:07N 20°14' E 110°33'11 5.5
2014-Oct-23 17:09N 20°11' E 110°22'3 4.9
2014-Oct-23 16:33N 20°10' E 110°19'5 4.6
2014-Oct-23 15:33N 20°10' E 110°14'  
2014-Oct-18 09:33N 21°49' E 113°12'7 7.1
2014-Oct-18 08:33N 21°56' E 113°09'  
2014-Oct-15 09:19N 22°07' E 113°06'7 8.7
2014-Oct-15 08:33N 22°01' E 113°06'9 9.0
2014-Oct-15 07:33N 21°54' E 113°12'7 7.0
2014-Oct-15 06:33N 21°47' E 113°10'7 7.2
2014-Oct-15 05:33N 21°42' E 113°04'  

Dump ship's entire track history